sensor_id;sensor_type;location;lat;lon;timestamp;P1;durP1;ratioP1;P2;durP2;ratioP2
14377;SDS011;7272;53.668;9.578;2023-08-06T00:00:48;8.53;;;7.90;;
14377;SDS011;7272;53.668;9.578;2023-08-06T00:03:50;10.23;;;9.52;;
14377;SDS011;7272;53.668;9.578;2023-08-06T00:06:51;7.53;;;6.93;;
14377;SDS011;7272;53.668;9.578;2023-08-06T00:09:52;9.50;;;8.70;;
14377;SDS011;7272;53.668;9.578;2023-08-06T00:12:54;9.03;;;8.33;;
14377;SDS011;7272;53.668;9.578;2023-08-06T00:15:55;7.53;;;6.93;;
14377;SDS011;7272;53.668;9.578;2023-08-06T00:18:56;6.97;;;6.37;;
14377;SDS011;7272;53.668;9.578;2023-08-06T00:21:57;6.93;;;6.43;;
14377;SDS011;7272;53.668;9.578;2023-08-06T00:24:58;9.05;;;8.45;;
14377;SDS011;7272;53.668;9.578;2023-08-06T00:28:00;6.30;;;5.90;;
14377;SDS011;7272;53.668;9.578;2023-08-06T00:31:01;5.10;;;4.60;;
14377;SDS011;7272;53.668;9.578;2023-08-06T00:34:02;5.33;;;4.83;;
14377;SDS011;7272;53.668;9.578;2023-08-06T00:37:04;6.53;;;5.90;;
14377;SDS011;7272;53.668;9.578;2023-08-06T00:40:06;5.40;;;5.00;;
14377;SDS011;7272;53.668;9.578;2023-08-06T00:43:09;4.90;;;4.60;;
14377;SDS011;7272;53.668;9.578;2023-08-06T00:46:10;5.17;;;4.50;;
14377;SDS011;7272;53.668;9.578;2023-08-06T00:49:11;4.93;;;4.60;;
14377;SDS011;7272;53.668;9.578;2023-08-06T00:52:12;6.18;;;5.78;;
14377;SDS011;7272;53.668;9.578;2023-08-06T00:55:14;4.30;;;4.03;;
14377;SDS011;7272;53.668;9.578;2023-08-06T00:58:16;3.60;;;3.40;;
14377;SDS011;7272;53.668;9.578;2023-08-06T01:01:18;3.93;;;3.63;;
14377;SDS011;7272;53.668;9.578;2023-08-06T01:04:19;3.90;;;3.60;;
14377;SDS011;7272;53.668;9.578;2023-08-06T01:10:45;5.30;;;5.00;;
14377;SDS011;7272;53.668;9.578;2023-08-06T01:13:57;5.85;;;5.35;;
14377;SDS011;7272;53.668;9.578;2023-08-06T01:17:03;4.60;;;4.20;;
14377;SDS011;7272;53.668;9.578;2023-08-06T01:20:06;4.67;;;4.37;;
14377;SDS011;7272;53.668;9.578;2023-08-06T01:23:10;5.23;;;4.83;;
14377;SDS011;7272;53.668;9.578;2023-08-06T01:26:12;4.57;;;4.17;;
14377;SDS011;7272;53.668;9.578;2023-08-06T01:29:19;5.60;;;4.83;;
14377;SDS011;7272;53.668;9.578;2023-08-06T01:32:25;7.15;;;6.63;;
14377;SDS011;7272;53.668;9.578;2023-08-06T01:35:29;7.95;;;7.30;;
14377;SDS011;7272;53.668;9.578;2023-08-06T01:38:33;5.50;;;5.10;;
14377;SDS011;7272;53.668;9.578;2023-08-06T01:41:34;5.20;;;4.83;;
14377;SDS011;7272;53.668;9.578;2023-08-06T01:44:36;5.53;;;5.13;;
14377;SDS011;7272;53.668;9.578;2023-08-06T01:47:37;6.33;;;5.83;;
14377;SDS011;7272;53.668;9.578;2023-08-06T01:50:38;4.30;;;4.00;;
14377;SDS011;7272;53.668;9.578;2023-08-06T01:53:40;6.20;;;5.70;;
14377;SDS011;7272;53.668;9.578;2023-08-06T01:56:41;5.77;;;5.37;;
14377;SDS011;7272;53.668;9.578;2023-08-06T01:59:42;8.20;;;7.60;;
14377;SDS011;7272;53.668;9.578;2023-08-06T02:02:43;5.57;;;5.17;;
14377;SDS011;7272;53.668;9.578;2023-08-06T02:05:44;4.37;;;4.07;;
14377;SDS011;7272;53.668;9.578;2023-08-06T02:08:47;5.40;;;5.00;;
14377;SDS011;7272;53.668;9.578;2023-08-06T02:11:49;4.90;;;4.60;;
14377;SDS011;7272;53.668;9.578;2023-08-06T02:14:51;4.70;;;4.40;;
14377;SDS011;7272;53.668;9.578;2023-08-06T02:17:52;7.35;;;6.85;;
14377;SDS011;7272;53.668;9.578;2023-08-06T02:20:56;7.50;;;6.90;;
14377;SDS011;7272;53.668;9.578;2023-08-06T02:23:59;5.03;;;4.67;;
14377;SDS011;7272;53.668;9.578;2023-08-06T02:27:00;9.33;;;5.77;;
14377;SDS011;7272;53.668;9.578;2023-08-06T02:30:01;6.10;;;5.60;;
14377;SDS011;7272;53.668;9.578;2023-08-06T02:33:04;6.80;;;6.17;;
14377;SDS011;7272;53.668;9.578;2023-08-06T02:36:05;5.40;;;5.00;;
14377;SDS011;7272;53.668;9.578;2023-08-06T02:39:07;6.97;;;6.47;;
14377;SDS011;7272;53.668;9.578;2023-08-06T02:42:09;7.57;;;5.30;;
14377;SDS011;7272;53.668;9.578;2023-08-06T02:45:10;6.10;;;5.60;;
14377;SDS011;7272;53.668;9.578;2023-08-06T02:48:11;6.00;;;5.47;;
14377;SDS011;7272;53.668;9.578;2023-08-06T02:51:13;7.83;;;6.20;;
14377;SDS011;7272;53.668;9.578;2023-08-06T02:54:14;6.57;;;6.07;;
14377;SDS011;7272;53.668;9.578;2023-08-06T02:57:16;5.10;;;4.70;;
14377;SDS011;7272;53.668;9.578;2023-08-06T03:00:17;5.70;;;5.27;;
14377;SDS011;7272;53.668;9.578;2023-08-06T03:03:19;8.20;;;7.60;;
14377;SDS011;7272;53.668;9.578;2023-08-06T03:06:27;8.07;;;7.47;;
14377;SDS011;7272;53.668;9.578;2023-08-06T03:09:32;5.50;;;5.00;;
14377;SDS011;7272;53.668;9.578;2023-08-06T03:12:33;5.30;;;4.80;;
14377;SDS011;7272;53.668;9.578;2023-08-06T03:15:36;4.60;;;4.20;;
14377;SDS011;7272;53.668;9.578;2023-08-06T03:18:38;4.83;;;4.43;;
14377;SDS011;7272;53.668;9.578;2023-08-06T03:21:42;4.43;;;4.13;;
14377;SDS011;7272;53.668;9.578;2023-08-06T03:24:44;6.93;;;6.43;;
14377;SDS011;7272;53.668;9.578;2023-08-06T03:27:46;5.60;;;5.20;;
14377;SDS011;7272;53.668;9.578;2023-08-06T03:30:58;5.40;;;4.90;;
14377;SDS011;7272;53.668;9.578;2023-08-06T03:34:00;5.13;;;4.83;;
14377;SDS011;7272;53.668;9.578;2023-08-06T03:37:03;5.47;;;4.97;;
14377;SDS011;7272;53.668;9.578;2023-08-06T03:40:06;8.07;;;4.90;;
14377;SDS011;7272;53.668;9.578;2023-08-06T03:43:09;5.30;;;4.90;;
14377;SDS011;7272;53.668;9.578;2023-08-06T03:46:10;5.10;;;4.70;;
14377;SDS011;7272;53.668;9.578;2023-08-06T03:49:11;5.80;;;5.30;;
14377;SDS011;7272;53.668;9.578;2023-08-06T03:52:13;8.00;;;7.40;;
14377;SDS011;7272;53.668;9.578;2023-08-06T03:55:15;5.80;;;5.33;;
14377;SDS011;7272;53.668;9.578;2023-08-06T03:58:16;6.40;;;5.77;;
14377;SDS011;7272;53.668;9.578;2023-08-06T04:01:17;4.63;;;4.33;;
14377;SDS011;7272;53.668;9.578;2023-08-06T04:04:20;5.70;;;5.30;;
14377;SDS011;7272;53.668;9.578;2023-08-06T04:07:22;5.13;;;4.77;;
14377;SDS011;7272;53.668;9.578;2023-08-06T04:10:23;5.40;;;5.00;;
14377;SDS011;7272;53.668;9.578;2023-08-06T04:13:25;6.00;;;5.50;;
14377;SDS011;7272;53.668;9.578;2023-08-06T04:16:26;5.17;;;4.80;;
14377;SDS011;7272;53.668;9.578;2023-08-06T04:19:27;5.20;;;4.70;;
14377;SDS011;7272;53.668;9.578;2023-08-06T04:22:29;5.67;;;5.10;;
14377;SDS011;7272;53.668;9.578;2023-08-06T04:25:31;5.70;;;5.30;;
14377;SDS011;7272;53.668;9.578;2023-08-06T04:28:32;6.23;;;5.73;;
14377;SDS011;7272;53.668;9.578;2023-08-06T04:31:33;5.63;;;5.20;;
14377;SDS011;7272;53.668;9.578;2023-08-06T04:34:36;7.32;;;6.63;;
14377;SDS011;7272;53.668;9.578;2023-08-06T04:37:38;6.70;;;6.00;;
14377;SDS011;7272;53.668;9.578;2023-08-06T04:40:40;4.90;;;4.53;;
14377;SDS011;7272;53.668;9.578;2023-08-06T04:43:42;5.43;;;4.90;;
14377;SDS011;7272;53.668;9.578;2023-08-06T04:46:43;4.57;;;4.27;;
14377;SDS011;7272;53.668;9.578;2023-08-06T04:49:45;4.80;;;4.40;;
14377;SDS011;7272;53.668;9.578;2023-08-06T04:52:46;5.63;;;5.17;;
14377;SDS011;7272;53.668;9.578;2023-08-06T04:55:48;5.13;;;4.70;;
14377;SDS011;7272;53.668;9.578;2023-08-06T04:58:49;3.90;;;3.63;;
14377;SDS011;7272;53.668;9.578;2023-08-06T05:01:50;6.38;;;5.78;;
14377;SDS011;7272;53.668;9.578;2023-08-06T05:04:51;5.00;;;4.70;;
14377;SDS011;7272;53.668;9.578;2023-08-06T05:07:54;6.37;;;4.20;;
14377;SDS011;7272;53.668;9.578;2023-08-06T05:10:56;4.70;;;4.37;;
14377;SDS011;7272;53.668;9.578;2023-08-06T05:13:57;4.90;;;4.60;;
14377;SDS011;7272;53.668;9.578;2023-08-06T05:16:59;5.27;;;4.83;;
14377;SDS011;7272;53.668;9.578;2023-08-06T05:20:02;4.30;;;3.90;;
14377;SDS011;7272;53.668;9.578;2023-08-06T05:23:04;5.65;;;5.20;;
14377;SDS011;7272;53.668;9.578;2023-08-06T05:26:06;6.18;;;5.68;;
14377;SDS011;7272;53.668;9.578;2023-08-06T05:29:07;4.20;;;3.90;;
14377;SDS011;7272;53.668;9.578;2023-08-06T05:32:08;4.53;;;4.17;;
14377;SDS011;7272;53.668;9.578;2023-08-06T05:35:10;4.13;;;3.73;;
14377;SDS011;7272;53.668;9.578;2023-08-06T05:38:11;3.83;;;3.50;;
14377;SDS011;7272;53.668;9.578;2023-08-06T05:41:13;4.10;;;3.20;;
14377;SDS011;7272;53.668;9.578;2023-08-06T05:44:14;4.50;;;4.20;;
14377;SDS011;7272;53.668;9.578;2023-08-06T05:47:15;3.33;;;3.13;;
14377;SDS011;7272;53.668;9.578;2023-08-06T05:50:16;4.10;;;3.80;;
14377;SDS011;7272;53.668;9.578;2023-08-06T05:53:18;4.63;;;4.20;;
14377;SDS011;7272;53.668;9.578;2023-08-06T05:56:19;4.87;;;4.10;;
14377;SDS011;7272;53.668;9.578;2023-08-06T05:59:21;4.43;;;4.03;;
14377;SDS011;7272;53.668;9.578;2023-08-06T06:02:22;4.93;;;4.40;;
14377;SDS011;7272;53.668;9.578;2023-08-06T06:05:23;4.77;;;4.30;;
14377;SDS011;7272;53.668;9.578;2023-08-06T06:08:24;6.10;;;5.60;;
14377;SDS011;7272;53.668;9.578;2023-08-06T06:11:26;6.10;;;5.00;;
14377;SDS011;7272;53.668;9.578;2023-08-06T06:14:27;5.43;;;4.93;;
14377;SDS011;7272;53.668;9.578;2023-08-06T06:17:28;4.53;;;4.23;;
14377;SDS011;7272;53.668;9.578;2023-08-06T06:20:31;5.00;;;4.60;;
14377;SDS011;7272;53.668;9.578;2023-08-06T06:23:32;4.63;;;4.20;;
14377;SDS011;7272;53.668;9.578;2023-08-06T06:26:34;4.57;;;4.27;;
14377;SDS011;7272;53.668;9.578;2023-08-06T06:29:35;5.80;;;4.77;;
14377;SDS011;7272;53.668;9.578;2023-08-06T06:32:36;6.25;;;5.75;;
14377;SDS011;7272;53.668;9.578;2023-08-06T06:35:38;6.10;;;5.60;;
14377;SDS011;7272;53.668;9.578;2023-08-06T06:38:39;4.50;;;4.10;;
14377;SDS011;7272;53.668;9.578;2023-08-06T06:41:41;5.13;;;4.73;;
14377;SDS011;7272;53.668;9.578;2023-08-06T06:44:52;4.80;;;4.40;;
14377;SDS011;7272;53.668;9.578;2023-08-06T06:47:53;5.63;;;5.00;;
14377;SDS011;7272;53.668;9.578;2023-08-06T06:50:54;4.50;;;4.10;;
14377;SDS011;7272;53.668;9.578;2023-08-06T06:53:56;5.30;;;4.90;;
14377;SDS011;7272;53.668;9.578;2023-08-06T06:56:57;6.97;;;6.38;;
14377;SDS011;7272;53.668;9.578;2023-08-06T06:59:58;6.47;;;5.97;;
14377;SDS011;7272;53.668;9.578;2023-08-06T07:03:00;5.30;;;4.80;;
14377;SDS011;7272;53.668;9.578;2023-08-06T07:06:07;3.90;;;3.60;;
14377;SDS011;7272;53.668;9.578;2023-08-06T07:09:08;5.00;;;4.60;;
14377;SDS011;7272;53.668;9.578;2023-08-06T07:12:09;5.47;;;5.07;;
14377;SDS011;7272;53.668;9.578;2023-08-06T07:15:10;4.67;;;4.30;;
14377;SDS011;7272;53.668;9.578;2023-08-06T07:18:11;6.50;;;6.00;;
14377;SDS011;7272;53.668;9.578;2023-08-06T07:21:13;6.35;;;5.75;;
14377;SDS011;7272;53.668;9.578;2023-08-06T07:24:14;5.10;;;4.67;;
14377;SDS011;7272;53.668;9.578;2023-08-06T07:27:16;4.83;;;4.50;;
14377;SDS011;7272;53.668;9.578;2023-08-06T07:30:17;5.37;;;4.87;;
14377;SDS011;7272;53.668;9.578;2023-08-06T07:33:18;4.67;;;4.37;;
14377;SDS011;7272;53.668;9.578;2023-08-06T07:36:20;5.57;;;5.07;;
14377;SDS011;7272;53.668;9.578;2023-08-06T07:39:21;6.22;;;5.63;;
14377;SDS011;7272;53.668;9.578;2023-08-06T07:42:23;5.37;;;4.80;;
14377;SDS011;7272;53.668;9.578;2023-08-06T07:45:24;5.47;;;4.80;;
14377;SDS011;7272;53.668;9.578;2023-08-06T07:48:27;5.27;;;4.83;;
14377;SDS011;7272;53.668;9.578;2023-08-06T07:51:29;5.57;;;5.07;;
14377;SDS011;7272;53.668;9.578;2023-08-06T07:54:30;5.73;;;5.33;;
14377;SDS011;7272;53.668;9.578;2023-08-06T07:57:31;5.50;;;5.10;;
14377;SDS011;7272;53.668;9.578;2023-08-06T08:00:32;6.03;;;5.60;;
14377;SDS011;7272;53.668;9.578;2023-08-06T08:03:33;5.47;;;5.07;;
14377;SDS011;7272;53.668;9.578;2023-08-06T08:06:36;7.15;;;6.60;;
14377;SDS011;7272;53.668;9.578;2023-08-06T08:09:37;5.67;;;5.13;;
14377;SDS011;7272;53.668;9.578;2023-08-06T08:12:38;6.00;;;5.40;;
14377;SDS011;7272;53.668;9.578;2023-08-06T08:15:39;6.27;;;5.40;;
14377;SDS011;7272;53.668;9.578;2023-08-06T08:18:40;5.23;;;4.77;;
14377;SDS011;7272;53.668;9.578;2023-08-06T08:21:42;6.70;;;5.57;;
14377;SDS011;7272;53.668;9.578;2023-08-06T08:24:43;5.27;;;4.83;;
14377;SDS011;7272;53.668;9.578;2023-08-06T08:27:44;7.28;;;6.57;;
14377;SDS011;7272;53.668;9.578;2023-08-06T08:30:45;4.93;;;4.53;;
14377;SDS011;7272;53.668;9.578;2023-08-06T08:33:46;5.17;;;4.60;;
14377;SDS011;7272;53.668;9.578;2023-08-06T08:36:48;5.83;;;5.33;;
14377;SDS011;7272;53.668;9.578;2023-08-06T08:39:50;6.03;;;5.43;;
14377;SDS011;7272;53.668;9.578;2023-08-06T08:42:52;6.40;;;5.07;;
14377;SDS011;7272;53.668;9.578;2023-08-06T08:45:54;6.10;;;5.50;;
14377;SDS011;7272;53.668;9.578;2023-08-06T08:48:56;7.70;;;7.00;;
14377;SDS011;7272;53.668;9.578;2023-08-06T08:51:59;5.63;;;5.13;;
14377;SDS011;7272;53.668;9.578;2023-08-06T08:55:03;5.37;;;4.97;;
14377;SDS011;7272;53.668;9.578;2023-08-06T08:58:05;5.40;;;4.90;;
14377;SDS011;7272;53.668;9.578;2023-08-06T09:01:07;5.33;;;4.93;;
14377;SDS011;7272;53.668;9.578;2023-08-06T09:04:10;5.57;;;5.07;;
14377;SDS011;7272;53.668;9.578;2023-08-06T09:07:13;6.13;;;5.53;;
14377;SDS011;7272;53.668;9.578;2023-08-06T09:10:18;7.15;;;6.63;;
14377;SDS011;7272;53.668;9.578;2023-08-06T09:13:23;5.10;;;4.60;;
14377;SDS011;7272;53.668;9.578;2023-08-06T09:16:24;6.00;;;5.20;;
14377;SDS011;7272;53.668;9.578;2023-08-06T09:19:26;4.90;;;4.50;;
14377;SDS011;7272;53.668;9.578;2023-08-06T09:22:33;5.97;;;5.40;;
14377;SDS011;7272;53.668;9.578;2023-08-06T09:25:36;5.78;;;5.18;;
14377;SDS011;7272;53.668;9.578;2023-08-06T09:28:40;5.97;;;4.83;;
14377;SDS011;7272;53.668;9.578;2023-08-06T09:31:43;7.10;;;6.40;;
14377;SDS011;7272;53.668;9.578;2023-08-06T09:34:46;8.33;;;5.03;;
14377;SDS011;7272;53.668;9.578;2023-08-06T09:37:48;5.07;;;4.57;;
14377;SDS011;7272;53.668;9.578;2023-08-06T09:40:49;5.17;;;4.67;;
14377;SDS011;7272;53.668;9.578;2023-08-06T09:43:50;4.80;;;4.40;;
14377;SDS011;7272;53.668;9.578;2023-08-06T09:46:52;5.00;;;4.50;;
14377;SDS011;7272;53.668;9.578;2023-08-06T09:49:55;5.93;;;4.67;;
14377;SDS011;7272;53.668;9.578;2023-08-06T09:52:58;5.80;;;5.30;;
14377;SDS011;7272;53.668;9.578;2023-08-06T09:56:01;7.07;;;4.83;;
14377;SDS011;7272;53.668;9.578;2023-08-06T09:59:02;5.63;;;4.70;;
14377;SDS011;7272;53.668;9.578;2023-08-06T10:02:05;4.40;;;4.10;;
14377;SDS011;7272;53.668;9.578;2023-08-06T10:05:12;5.23;;;4.80;;
14377;SDS011;7272;53.668;9.578;2023-08-06T10:08:15;4.60;;;4.20;;
14377;SDS011;7272;53.668;9.578;2023-08-06T10:11:16;5.07;;;3.87;;
14377;SDS011;7272;53.668;9.578;2023-08-06T10:14:20;6.28;;;5.78;;
14377;SDS011;7272;53.668;9.578;2023-08-06T10:17:25;4.77;;;4.37;;
14377;SDS011;7272;53.668;9.578;2023-08-06T10:20:32;5.10;;;4.60;;
14377;SDS011;7272;53.668;9.578;2023-08-06T10:23:35;4.23;;;3.80;;
14377;SDS011;7272;53.668;9.578;2023-08-06T10:26:38;4.33;;;3.80;;
14377;SDS011;7272;53.668;9.578;2023-08-06T10:29:39;4.78;;;4.38;;
14377;SDS011;7272;53.668;9.578;2023-08-06T10:32:47;5.05;;;4.65;;
14377;SDS011;7272;53.668;9.578;2023-08-06T10:35:49;4.17;;;3.80;;
14377;SDS011;7272;53.668;9.578;2023-08-06T10:38:51;4.20;;;3.87;;
14377;SDS011;7272;53.668;9.578;2023-08-06T10:41:52;4.03;;;3.63;;
14377;SDS011;7272;53.668;9.578;2023-08-06T10:48:30;4.80;;;4.40;;
14377;SDS011;7272;53.668;9.578;2023-08-06T10:51:34;4.82;;;4.43;;
14377;SDS011;7272;53.668;9.578;2023-08-06T10:54:36;4.03;;;3.63;;
14377;SDS011;7272;53.668;9.578;2023-08-06T10:57:39;3.10;;;2.90;;
14377;SDS011;7272;53.668;9.578;2023-08-06T11:00:40;3.93;;;3.50;;
14377;SDS011;7272;53.668;9.578;2023-08-06T11:03:42;3.80;;;3.50;;
14377;SDS011;7272;53.668;9.578;2023-08-06T11:06:50;4.30;;;3.40;;
14377;SDS011;7272;53.668;9.578;2023-08-06T11:09:54;5.80;;;3.40;;
14377;SDS011;7272;53.668;9.578;2023-08-06T11:13:02;3.27;;;2.93;;
14377;SDS011;7272;53.668;9.578;2023-08-06T11:16:03;3.40;;;3.10;;
14377;SDS011;7272;53.668;9.578;2023-08-06T11:19:07;4.43;;;3.30;;
14377;SDS011;7272;53.668;9.578;2023-08-06T11:22:08;4.00;;;3.50;;
14377;SDS011;7272;53.668;9.578;2023-08-06T11:25:10;4.65;;;3.95;;
14377;SDS011;7272;53.668;9.578;2023-08-06T11:28:11;3.60;;;3.30;;
14377;SDS011;7272;53.668;9.578;2023-08-06T11:31:18;3.83;;;3.37;;
14377;SDS011;7272;53.668;9.578;2023-08-06T11:34:19;4.00;;;3.37;;
14377;SDS011;7272;53.668;9.578;2023-08-06T11:37:21;3.60;;;3.30;;
14377;SDS011;7272;53.668;9.578;2023-08-06T11:40:24;4.57;;;3.40;;
14377;SDS011;7272;53.668;9.578;2023-08-06T11:43:25;3.80;;;3.37;;
14377;SDS011;7272;53.668;9.578;2023-08-06T11:46:26;3.50;;;3.20;;
14377;SDS011;7272;53.668;9.578;2023-08-06T11:52:47;3.90;;;3.60;;
14377;SDS011;7272;53.668;9.578;2023-08-06T11:55:48;4.00;;;3.70;;
14377;SDS011;7272;53.668;9.578;2023-08-06T11:58:50;3.97;;;3.67;;
14377;SDS011;7272;53.668;9.578;2023-08-06T12:01:51;4.32;;;3.90;;
14377;SDS011;7272;53.668;9.578;2023-08-06T12:05:03;3.93;;;3.53;;
14377;SDS011;7272;53.668;9.578;2023-08-06T12:08:10;4.20;;;3.60;;
14377;SDS011;7272;53.668;9.578;2023-08-06T12:11:12;3.23;;;3.03;;
14377;SDS011;7272;53.668;9.578;2023-08-06T12:14:13;4.23;;;3.83;;
14377;SDS011;7272;53.668;9.578;2023-08-06T12:17:14;4.80;;;3.80;;
14377;SDS011;7272;53.668;9.578;2023-08-06T12:20:15;4.30;;;3.90;;
14377;SDS011;7272;53.668;9.578;2023-08-06T12:23:16;4.15;;;3.75;;
14377;SDS011;7272;53.668;9.578;2023-08-06T12:26:18;4.00;;;3.60;;
14377;SDS011;7272;53.668;9.578;2023-08-06T12:29:20;3.73;;;3.30;;
14377;SDS011;7272;53.668;9.578;2023-08-06T12:32:21;4.37;;;3.97;;
14377;SDS011;7272;53.668;9.578;2023-08-06T12:35:22;4.23;;;3.90;;
14377;SDS011;7272;53.668;9.578;2023-08-06T12:38:25;5.55;;;5.07;;
14377;SDS011;7272;53.668;9.578;2023-08-06T12:41:27;5.65;;;5.15;;
14377;SDS011;7272;53.668;9.578;2023-08-06T12:44:29;5.60;;;4.50;;
14377;SDS011;7272;53.668;9.578;2023-08-06T12:47:30;5.60;;;5.10;;
14377;SDS011;7272;53.668;9.578;2023-08-06T12:50:31;5.80;;;5.30;;
14377;SDS011;7272;53.668;9.578;2023-08-06T12:53:33;5.57;;;5.17;;
14377;SDS011;7272;53.668;9.578;2023-08-06T12:56:34;5.97;;;5.47;;
14377;SDS011;7272;53.668;9.578;2023-08-06T12:59:36;5.37;;;4.87;;
14377;SDS011;7272;53.668;9.578;2023-08-06T13:02:37;6.50;;;5.80;;
14377;SDS011;7272;53.668;9.578;2023-08-06T13:05:38;5.27;;;4.90;;
14377;SDS011;7272;53.668;9.578;2023-08-06T13:08:39;4.83;;;4.43;;
14377;SDS011;7272;53.668;9.578;2023-08-06T13:11:41;4.10;;;3.80;;
14377;SDS011;7272;53.668;9.578;2023-08-06T13:14:46;4.30;;;3.77;;
14377;SDS011;7272;53.668;9.578;2023-08-06T13:17:47;4.80;;;4.40;;
14377;SDS011;7272;53.668;9.578;2023-08-06T13:20:48;4.50;;;4.10;;
14377;SDS011;7272;53.668;9.578;2023-08-06T13:23:52;4.13;;;3.60;;
14377;SDS011;7272;53.668;9.578;2023-08-06T13:26:54;3.00;;;2.80;;
14377;SDS011;7272;53.668;9.578;2023-08-06T13:29:55;2.90;;;2.70;;
14377;SDS011;7272;53.668;9.578;2023-08-06T13:32:56;3.30;;;2.67;;
14377;SDS011;7272;53.668;9.578;2023-08-06T13:35:58;3.50;;;3.22;;
14377;SDS011;7272;53.668;9.578;2023-08-06T13:38:59;3.25;;;3.05;;
14377;SDS011;7272;53.668;9.578;2023-08-06T13:42:01;3.33;;;3.03;;
14377;SDS011;7272;53.668;9.578;2023-08-06T13:45:03;3.33;;;2.90;;
14377;SDS011;7272;53.668;9.578;2023-08-06T13:48:05;3.03;;;2.50;;
14377;SDS011;7272;53.668;9.578;2023-08-06T13:51:06;2.97;;;2.77;;
14377;SDS011;7272;53.668;9.578;2023-08-06T13:54:08;3.20;;;3.00;;
14377;SDS011;7272;53.668;9.578;2023-08-06T13:57:09;3.33;;;3.03;;
14377;SDS011;7272;53.668;9.578;2023-08-06T14:00:11;2.90;;;2.70;;
14377;SDS011;7272;53.668;9.578;2023-08-06T14:03:13;3.23;;;2.53;;
14377;SDS011;7272;53.668;9.578;2023-08-06T14:06:14;2.70;;;2.50;;
14377;SDS011;7272;53.668;9.578;2023-08-06T14:09:15;2.60;;;2.40;;
14377;SDS011;7272;53.668;9.578;2023-08-06T14:12:19;3.17;;;2.87;;
14377;SDS011;7272;53.668;9.578;2023-08-06T14:15:20;2.83;;;2.60;;
14377;SDS011;7272;53.668;9.578;2023-08-06T14:18:21;3.33;;;3.10;;
14377;SDS011;7272;53.668;9.578;2023-08-06T14:21:23;2.70;;;2.50;;
14377;SDS011;7272;53.668;9.578;2023-08-06T14:24:24;3.37;;;2.97;;
14377;SDS011;7272;53.668;9.578;2023-08-06T14:27:25;3.10;;;2.90;;
14377;SDS011;7272;53.668;9.578;2023-08-06T14:30:27;4.93;;;2.83;;
14377;SDS011;7272;53.668;9.578;2023-08-06T14:33:28;3.63;;;3.30;;
14377;SDS011;7272;53.668;9.578;2023-08-06T14:36:29;3.67;;;3.23;;
14377;SDS011;7272;53.668;9.578;2023-08-06T14:39:30;2.90;;;2.57;;
14377;SDS011;7272;53.668;9.578;2023-08-06T14:42:32;2.87;;;2.50;;
14377;SDS011;7272;53.668;9.578;2023-08-06T14:45:33;3.00;;;2.80;;
14377;SDS011;7272;53.668;9.578;2023-08-06T14:48:37;2.83;;;2.40;;
14377;SDS011;7272;53.668;9.578;2023-08-06T14:51:39;2.90;;;2.70;;
14377;SDS011;7272;53.668;9.578;2023-08-06T14:54:40;2.50;;;2.30;;
14377;SDS011;7272;53.668;9.578;2023-08-06T14:57:42;2.90;;;2.70;;
14377;SDS011;7272;53.668;9.578;2023-08-06T15:00:44;3.67;;;2.63;;
14377;SDS011;7272;53.668;9.578;2023-08-06T15:03:45;2.77;;;2.57;;
14377;SDS011;7272;53.668;9.578;2023-08-06T15:06:47;3.83;;;2.47;;
14377;SDS011;7272;53.668;9.578;2023-08-06T15:09:48;2.73;;;2.50;;
14377;SDS011;7272;53.668;9.578;2023-08-06T15:12:50;2.47;;;2.10;;
14377;SDS011;7272;53.668;9.578;2023-08-06T15:15:51;3.03;;;2.55;;
14377;SDS011;7272;53.668;9.578;2023-08-06T15:18:52;2.37;;;2.10;;
14377;SDS011;7272;53.668;9.578;2023-08-06T15:21:53;2.40;;;2.20;;
14377;SDS011;7272;53.668;9.578;2023-08-06T15:24:54;2.53;;;2.33;;
14377;SDS011;7272;53.668;9.578;2023-08-06T15:27:56;2.60;;;2.27;;
14377;SDS011;7272;53.668;9.578;2023-08-06T15:30:57;2.97;;;2.65;;
14377;SDS011;7272;53.668;9.578;2023-08-06T15:33:59;2.60;;;2.40;;
14377;SDS011;7272;53.668;9.578;2023-08-06T15:37:00;3.10;;;2.80;;
14377;SDS011;7272;53.668;9.578;2023-08-06T15:40:01;2.90;;;2.33;;
14377;SDS011;7272;53.668;9.578;2023-08-06T15:43:03;2.80;;;2.50;;
14377;SDS011;7272;53.668;9.578;2023-08-06T15:46:04;2.70;;;2.50;;
14377;SDS011;7272;53.668;9.578;2023-08-06T15:49:05;3.73;;;2.50;;
14377;SDS011;7272;53.668;9.578;2023-08-06T15:52:07;4.60;;;3.05;;
14377;SDS011;7272;53.668;9.578;2023-08-06T15:55:08;2.80;;;2.50;;
14377;SDS011;7272;53.668;9.578;2023-08-06T15:58:10;3.43;;;2.30;;
14377;SDS011;7272;53.668;9.578;2023-08-06T16:01:11;2.40;;;2.20;;
14377;SDS011;7272;53.668;9.578;2023-08-06T16:04:14;2.60;;;2.20;;
14377;SDS011;7272;53.668;9.578;2023-08-06T16:07:15;3.67;;;2.40;;
14377;SDS011;7272;53.668;9.578;2023-08-06T16:10:16;4.10;;;2.57;;
14377;SDS011;7272;53.668;9.578;2023-08-06T16:13:18;4.07;;;2.40;;
14377;SDS011;7272;53.668;9.578;2023-08-06T16:16:19;3.75;;;2.60;;
14377;SDS011;7272;53.668;9.578;2023-08-06T16:19:21;2.43;;;2.20;;
14377;SDS011;7272;53.668;9.578;2023-08-06T16:22:22;2.70;;;2.20;;
14377;SDS011;7272;53.668;9.578;2023-08-06T16:25:23;4.00;;;2.63;;
14377;SDS011;7272;53.668;9.578;2023-08-06T16:28:25;2.73;;;2.00;;
14377;SDS011;7272;53.668;9.578;2023-08-06T16:31:28;4.35;;;2.67;;
14377;SDS011;7272;53.668;9.578;2023-08-06T16:34:30;2.40;;;2.20;;
14377;SDS011;7272;53.668;9.578;2023-08-06T16:37:32;2.63;;;2.10;;
14377;SDS011;7272;53.668;9.578;2023-08-06T16:40:33;4.03;;;2.37;;
14377;SDS011;7272;53.668;9.578;2023-08-06T16:43:35;2.33;;;2.13;;
14377;SDS011;7272;53.668;9.578;2023-08-06T16:46:36;1.93;;;1.83;;
14377;SDS011;7272;53.668;9.578;2023-08-06T16:49:37;2.50;;;2.30;;
14377;SDS011;7272;53.668;9.578;2023-08-06T16:52:38;2.63;;;2.42;;
14377;SDS011;7272;53.668;9.578;2023-08-06T16:55:39;3.90;;;2.67;;
14377;SDS011;7272;53.668;9.578;2023-08-06T16:58:41;2.50;;;2.30;;
14377;SDS011;7272;53.668;9.578;2023-08-06T17:01:42;4.77;;;2.10;;
14377;SDS011;7272;53.668;9.578;2023-08-06T17:04:43;2.90;;;2.20;;
14377;SDS011;7272;53.668;9.578;2023-08-06T17:07:45;3.33;;;1.80;;
14377;SDS011;7272;53.668;9.578;2023-08-06T17:10:50;3.92;;;2.50;;
14377;SDS011;7272;53.668;9.578;2023-08-06T17:13:51;2.50;;;2.20;;
14377;SDS011;7272;53.668;9.578;2023-08-06T17:16:52;2.92;;;2.40;;
14377;SDS011;7272;53.668;9.578;2023-08-06T17:19:54;2.60;;;2.40;;
14377;SDS011;7272;53.668;9.578;2023-08-06T17:22:56;2.73;;;2.40;;
14377;SDS011;7272;53.668;9.578;2023-08-06T17:25:57;6.17;;;2.50;;
14377;SDS011;7272;53.668;9.578;2023-08-06T17:28:59;3.83;;;2.20;;
14377;SDS011;7272;53.668;9.578;2023-08-06T17:32:00;4.68;;;2.75;;
14377;SDS011;7272;53.668;9.578;2023-08-06T17:35:01;6.05;;;3.03;;
14377;SDS011;7272;53.668;9.578;2023-08-06T17:38:04;2.90;;;2.20;;
14377;SDS011;7272;53.668;9.578;2023-08-06T17:41:05;3.23;;;2.70;;
14377;SDS011;7272;53.668;9.578;2023-08-06T17:44:07;3.90;;;2.40;;
14377;SDS011;7272;53.668;9.578;2023-08-06T17:47:08;2.77;;;2.40;;
14377;SDS011;7272;53.668;9.578;2023-08-06T17:50:09;2.90;;;2.40;;
14377;SDS011;7272;53.668;9.578;2023-08-06T17:53:11;3.30;;;2.10;;
14377;SDS011;7272;53.668;9.578;2023-08-06T17:56:12;3.00;;;2.70;;
14377;SDS011;7272;53.668;9.578;2023-08-06T17:59:14;6.07;;;3.07;;
14377;SDS011;7272;53.668;9.578;2023-08-06T18:02:15;2.40;;;2.20;;
14377;SDS011;7272;53.668;9.578;2023-08-06T18:05:16;3.67;;;2.40;;
14377;SDS011;7272;53.668;9.578;2023-08-06T18:08:18;3.83;;;2.70;;
14377;SDS011;7272;53.668;9.578;2023-08-06T18:11:19;3.13;;;2.70;;
14377;SDS011;7272;53.668;9.578;2023-08-06T18:14:21;5.30;;;2.50;;
14377;SDS011;7272;53.668;9.578;2023-08-06T18:17:22;2.93;;;2.73;;
14377;SDS011;7272;53.668;9.578;2023-08-06T18:20:23;3.27;;;2.70;;
14377;SDS011;7272;53.668;9.578;2023-08-06T18:23:24;2.93;;;2.43;;
14377;SDS011;7272;53.668;9.578;2023-08-06T18:26:26;4.37;;;2.80;;
14377;SDS011;7272;53.668;9.578;2023-08-06T18:29:27;3.23;;;2.60;;
14377;SDS011;7272;53.668;9.578;2023-08-06T18:32:29;3.22;;;2.92;;
14377;SDS011;7272;53.668;9.578;2023-08-06T18:35:30;3.47;;;2.55;;
14377;SDS011;7272;53.668;9.578;2023-08-06T18:38:32;4.10;;;2.30;;
14377;SDS011;7272;53.668;9.578;2023-08-06T18:41:33;2.50;;;2.30;;